sensor_id;sensor_type;location;lat;lon;timestamp;temperature;humidity
11666;DHT22;5889;51.350;6.708;2022-07-23T00:00:30;19.40;99.90
11666;DHT22;5889;51.350;6.708;2022-07-23T00:02:57;19.30;99.90
11666;DHT22;5889;51.350;6.708;2022-07-23T00:05:25;19.30;99.90
11666;DHT22;5889;51.350;6.708;2022-07-23T00:07:56;19.20;99.90
11666;DHT22;5889;51.350;6.708;2022-07-23T00:10:24;19.10;99.90
11666;DHT22;5889;51.350;6.708;2022-07-23T00:12:51;19.00;99.90
11666;DHT22;5889;51.350;6.708;2022-07-23T00:15:18;19.00;99.90
11666;DHT22;5889;51.350;6.708;2022-07-23T00:17:45;19.00;99.90
11666;DHT22;5889;51.350;6.708;2022-07-23T00:20:12;18.90;99.90
11666;DHT22;5889;51.350;6.708;2022-07-23T00:22:46;19.00;99.90
11666;DHT22;5889;51.350;6.708;2022-07-23T00:25:13;18.90;99.90
11666;DHT22;5889;51.350;6.708;2022-07-23T00:27:41;18.90;99.90
11666;DHT22;5889;51.350;6.708;2022-07-23T00:30:10;18.80;99.90
11666;DHT22;5889;51.350;6.708;2022-07-23T00:32:45;18.80;99.90
11666;DHT22;5889;51.350;6.708;2022-07-23T00:35:12;18.90;99.90
11666;DHT22;5889;51.350;6.708;2022-07-23T00:37:39;19.00;99.90
11666;DHT22;5889;51.350;6.708;2022-07-23T00:40:07;19.00;99.90
11666;DHT22;5889;51.350;6.708;2022-07-23T00:42:34;18.90;99.90
11666;DHT22;5889;51.350;6.708;2022-07-23T00:45:03;18.90;99.90
11666;DHT22;5889;51.350;6.708;2022-07-23T00:47:30;18.90;99.90
11666;DHT22;5889;51.350;6.708;2022-07-23T00:49:57;18.90;99.90
11666;DHT22;5889;51.350;6.708;2022-07-23T00:52:26;18.80;99.90
11666;DHT22;5889;51.350;6.708;2022-07-23T00:54:53;18.80;99.90
11666;DHT22;5889;51.350;6.708;2022-07-23T00:57:20;18.60;99.90
11666;DHT22;5889;51.350;6.708;2022-07-23T00:59:47;18.50;99.90
11666;DHT22;5889;51.350;6.708;2022-07-23T01:02:15;18.50;99.90
11666;DHT22;5889;51.350;6.708;2022-07-23T01:04:42;18.40;99.90
11666;DHT22;5889;51.350;6.708;2022-07-23T01:07:09;18.30;99.90
11666;DHT22;5889;51.350;6.708;2022-07-23T01:09:36;18.30;99.90
11666;DHT22;5889;51.350;6.708;2022-07-23T01:12:05;18.30;99.90
11666;DHT22;5889;51.350;6.708;2022-07-23T01:14:32;18.30;99.90
11666;DHT22;5889;51.350;6.708;2022-07-23T01:16:59;18.30;99.90
11666;DHT22;5889;51.350;6.708;2022-07-23T01:19:27;18.30;99.90
11666;DHT22;5889;51.350;6.708;2022-07-23T01:21:58;18.30;99.90
11666;DHT22;5889;51.350;6.708;2022-07-23T01:24:29;18.30;99.90
11666;DHT22;5889;51.350;6.708;2022-07-23T01:26:56;18.30;99.90
11666;DHT22;5889;51.350;6.708;2022-07-23T01:29:23;18.30;99.90
11666;DHT22;5889;51.350;6.708;2022-07-23T01:31:50;18.40;99.90
11666;DHT22;5889;51.350;6.708;2022-07-23T01:37:39;18.30;99.90
11666;DHT22;5889;51.350;6.708;2022-07-23T01:40:07;18.30;99.90
11666;DHT22;5889;51.350;6.708;2022-07-23T01:42:34;18.20;99.90
11666;DHT22;5889;51.350;6.708;2022-07-23T01:45:03;18.30;99.90
11666;DHT22;5889;51.350;6.708;2022-07-23T01:47:30;18.30;99.90
11666;DHT22;5889;51.350;6.708;2022-07-23T01:49:57;18.30;99.90
11666;DHT22;5889;51.350;6.708;2022-07-23T01:52:24;18.30;99.90
11666;DHT22;5889;51.350;6.708;2022-07-23T01:54:51;18.30;99.90
11666;DHT22;5889;51.350;6.708;2022-07-23T01:57:19;18.30;99.90
11666;DHT22;5889;51.350;6.708;2022-07-23T01:59:46;18.30;99.90
11666;DHT22;5889;51.350;6.708;2022-07-23T02:02:13;18.30;99.90
11666;DHT22;5889;51.350;6.708;2022-07-23T02:04:40;18.30;99.90
11666;DHT22;5889;51.350;6.708;2022-07-23T02:07:07;18.40;99.90
11666;DHT22;5889;51.350;6.708;2022-07-23T02:09:34;18.40;99.90
11666;DHT22;5889;51.350;6.708;2022-07-23T02:12:01;18.30;99.90
11666;DHT22;5889;51.350;6.708;2022-07-23T02:14:29;18.30;99.90
11666;DHT22;5889;51.350;6.708;2022-07-23T02:16:56;18.30;99.90
11666;DHT22;5889;51.350;6.708;2022-07-23T02:19:23;18.20;99.90
11666;DHT22;5889;51.350;6.708;2022-07-23T02:21:50;18.20;99.90
11666;DHT22;5889;51.350;6.708;2022-07-23T02:24:17;18.20;99.90
11666;DHT22;5889;51.350;6.708;2022-07-23T02:26:44;18.20;99.90
11666;DHT22;5889;51.350;6.708;2022-07-23T02:29:11;18.20;99.90
11666;DHT22;5889;51.350;6.708;2022-07-23T02:31:40;18.20;99.90
11666;DHT22;5889;51.350;6.708;2022-07-23T02:34:07;18.20;99.90
11666;DHT22;5889;51.350;6.708;2022-07-23T02:36:37;18.20;99.90
11666;DHT22;5889;51.350;6.708;2022-07-23T02:39:04;18.10;99.90
11666;DHT22;5889;51.350;6.708;2022-07-23T02:41:31;18.10;99.90
11666;DHT22;5889;51.350;6.708;2022-07-23T02:43:58;18.10;99.90
11666;DHT22;5889;51.350;6.708;2022-07-23T02:46:24;18.10;99.90
11666;DHT22;5889;51.350;6.708;2022-07-23T02:48:53;18.10;99.90
11666;DHT22;5889;51.350;6.708;2022-07-23T02:51:20;18.10;99.90
11666;DHT22;5889;51.350;6.708;2022-07-23T02:53:46;18.20;99.90
11666;DHT22;5889;51.350;6.708;2022-07-23T02:56:13;18.20;99.90
11666;DHT22;5889;51.350;6.708;2022-07-23T02:58:40;18.20;99.90
11666;DHT22;5889;51.350;6.708;2022-07-23T03:01:07;18.20;99.90
11666;DHT22;5889;51.350;6.708;2022-07-23T03:03:34;18.20;99.90
11666;DHT22;5889;51.350;6.708;2022-07-23T03:06:03;18.20;99.90
11666;DHT22;5889;51.350;6.708;2022-07-23T03:08:30;18.20;99.90
11666;DHT22;5889;51.350;6.708;2022-07-23T03:10:57;18.20;99.90
11666;DHT22;5889;51.350;6.708;2022-07-23T03:13:23;18.20;99.90
11666;DHT22;5889;51.350;6.708;2022-07-23T03:15:51;18.10;99.90
11666;DHT22;5889;51.350;6.708;2022-07-23T03:18:18;18.00;99.90
11666;DHT22;5889;51.350;6.708;2022-07-23T03:20:45;17.90;99.90
11666;DHT22;5889;51.350;6.708;2022-07-23T03:23:13;17.90;99.90
11666;DHT22;5889;51.350;6.708;2022-07-23T03:25:40;17.90;99.90
11666;DHT22;5889;51.350;6.708;2022-07-23T03:28:07;17.80;99.90
11666;DHT22;5889;51.350;6.708;2022-07-23T03:30:34;17.80;99.90
11666;DHT22;5889;51.350;6.708;2022-07-23T03:33:01;17.70;99.90
11666;DHT22;5889;51.350;6.708;2022-07-23T03:35:27;17.80;99.90
11666;DHT22;5889;51.350;6.708;2022-07-23T03:37:54;17.80;99.90
11666;DHT22;5889;51.350;6.708;2022-07-23T03:40:23;17.70;99.90
11666;DHT22;5889;51.350;6.708;2022-07-23T03:42:50;17.80;99.90
11666;DHT22;5889;51.350;6.708;2022-07-23T03:45:17;17.80;99.90
11666;DHT22;5889;51.350;6.708;2022-07-23T03:47:43;17.80;99.90
11666;DHT22;5889;51.350;6.708;2022-07-23T03:50:11;17.70;99.90
11666;DHT22;5889;51.350;6.708;2022-07-23T03:52:38;17.60;99.90
11666;DHT22;5889;51.350;6.708;2022-07-23T03:55:05;17.50;99.90
11666;DHT22;5889;51.350;6.708;2022-07-23T03:57:34;17.50;99.90
11666;DHT22;5889;51.350;6.708;2022-07-23T04:00:02;17.40;99.90
11666;DHT22;5889;51.350;6.708;2022-07-23T04:02:29;17.40;99.90
11666;DHT22;5889;51.350;6.708;2022-07-23T04:04:56;17.40;99.90
11666;DHT22;5889;51.350;6.708;2022-07-23T04:07:24;17.40;99.90
11666;DHT22;5889;51.350;6.708;2022-07-23T04:09:50;17.50;99.90
11666;DHT22;5889;51.350;6.708;2022-07-23T04:12:18;17.50;99.90
11666;DHT22;5889;51.350;6.708;2022-07-23T04:14:46;17.50;99.90
11666;DHT22;5889;51.350;6.708;2022-07-23T04:17:13;17.50;99.90
11666;DHT22;5889;51.350;6.708;2022-07-23T04:19:40;17.40;99.90
11666;DHT22;5889;51.350;6.708;2022-07-23T04:22:09;17.50;99.90
11666;DHT22;5889;51.350;6.708;2022-07-23T04:24:37;17.50;99.90
11666;DHT22;5889;51.350;6.708;2022-07-23T04:27:05;17.60;99.90
11666;DHT22;5889;51.350;6.708;2022-07-23T04:29:32;17.60;99.90
11666;DHT22;5889;51.350;6.708;2022-07-23T04:32:00;17.60;99.90
11666;DHT22;5889;51.350;6.708;2022-07-23T04:34:27;17.60;99.90
11666;DHT22;5889;51.350;6.708;2022-07-23T04:36:54;17.50;99.90
11666;DHT22;5889;51.350;6.708;2022-07-23T04:39:21;17.60;99.90
11666;DHT22;5889;51.350;6.708;2022-07-23T04:41:48;17.60;99.90
11666;DHT22;5889;51.350;6.708;2022-07-23T04:44:15;17.70;99.90
11666;DHT22;5889;51.350;6.708;2022-07-23T04:46:41;17.70;99.90
11666;DHT22;5889;51.350;6.708;2022-07-23T04:49:10;17.70;99.90
11666;DHT22;5889;51.350;6.708;2022-07-23T04:51:37;17.80;99.90
11666;DHT22;5889;51.350;6.708;2022-07-23T04:54:04;17.70;99.90
11666;DHT22;5889;51.350;6.708;2022-07-23T04:56:34;17.70;99.90
11666;DHT22;5889;51.350;6.708;2022-07-23T04:59:01;17.70;99.90
11666;DHT22;5889;51.350;6.708;2022-07-23T05:01:27;17.80;99.90
11666;DHT22;5889;51.350;6.708;2022-07-23T05:03:54;17.90;99.90
11666;DHT22;5889;51.350;6.708;2022-07-23T05:06:23;18.00;99.90
11666;DHT22;5889;51.350;6.708;2022-07-23T05:08:50;18.20;99.90
11666;DHT22;5889;51.350;6.708;2022-07-23T05:11:16;18.20;99.90
11666;DHT22;5889;51.350;6.708;2022-07-23T05:13:43;18.20;99.90
11666;DHT22;5889;51.350;6.708;2022-07-23T05:16:10;18.20;99.90
11666;DHT22;5889;51.350;6.708;2022-07-23T05:18:37;18.10;99.90
11666;DHT22;5889;51.350;6.708;2022-07-23T05:21:04;18.20;99.90
11666;DHT22;5889;51.350;6.708;2022-07-23T05:23:33;18.20;99.90
11666;DHT22;5889;51.350;6.708;2022-07-23T05:26:00;18.30;99.90
11666;DHT22;5889;51.350;6.708;2022-07-23T05:28:27;18.20;99.90
11666;DHT22;5889;51.350;6.708;2022-07-23T05:30:53;18.20;99.90
11666;DHT22;5889;51.350;6.708;2022-07-23T05:33:20;18.30;99.90
11666;DHT22;5889;51.350;6.708;2022-07-23T05:35:47;18.30;99.90
11666;DHT22;5889;51.350;6.708;2022-07-23T05:38:14;18.20;99.90
11666;DHT22;5889;51.350;6.708;2022-07-23T05:40:43;18.20;99.90
11666;DHT22;5889;51.350;6.708;2022-07-23T05:43:10;18.30;99.90
11666;DHT22;5889;51.350;6.708;2022-07-23T05:45:36;18.50;99.90
11666;DHT22;5889;51.350;6.708;2022-07-23T05:48:04;18.60;99.90
11666;DHT22;5889;51.350;6.708;2022-07-23T05:50:31;18.80;99.90
11666;DHT22;5889;51.350;6.708;2022-07-23T05:52:58;18.90;99.90
11666;DHT22;5889;51.350;6.708;2022-07-23T05:55:25;19.00;99.90
11666;DHT22;5889;51.350;6.708;2022-07-23T05:57:56;19.10;99.90
11666;DHT22;5889;51.350;6.708;2022-07-23T06:00:23;19.00;99.90
11666;DHT22;5889;51.350;6.708;2022-07-23T06:02:50;19.00;99.90
11666;DHT22;5889;51.350;6.708;2022-07-23T06:05:18;19.00;99.90
11666;DHT22;5889;51.350;6.708;2022-07-23T06:07:45;19.00;99.90
11666;DHT22;5889;51.350;6.708;2022-07-23T06:10:11;18.90;99.90
11666;DHT22;5889;51.350;6.708;2022-07-23T06:12:38;19.00;99.90
11666;DHT22;5889;51.350;6.708;2022-07-23T06:15:09;19.10;99.90
11666;DHT22;5889;51.350;6.708;2022-07-23T06:17:36;19.10;99.90
11666;DHT22;5889;51.350;6.708;2022-07-23T06:20:05;19.10;99.90
11666;DHT22;5889;51.350;6.708;2022-07-23T06:22:32;19.10;99.90
11666;DHT22;5889;51.350;6.708;2022-07-23T06:24:59;19.10;99.90
11666;DHT22;5889;51.350;6.708;2022-07-23T06:27:26;19.10;99.90
11666;DHT22;5889;51.350;6.708;2022-07-23T06:29:53;19.10;99.90
11666;DHT22;5889;51.350;6.708;2022-07-23T06:32:21;19.10;99.90
11666;DHT22;5889;51.350;6.708;2022-07-23T06:34:48;19.10;99.90
11666;DHT22;5889;51.350;6.708;2022-07-23T06:37:15;19.00;99.90
11666;DHT22;5889;51.350;6.708;2022-07-23T06:39:42;19.00;99.90
11666;DHT22;5889;51.350;6.708;2022-07-23T06:42:09;18.90;99.90
11666;DHT22;5889;51.350;6.708;2022-07-23T06:44:37;18.90;99.90
11666;DHT22;5889;51.350;6.708;2022-07-23T06:47:04;18.80;99.90
11666;DHT22;5889;51.350;6.708;2022-07-23T06:49:32;18.80;99.90
11666;DHT22;5889;51.350;6.708;2022-07-23T06:51:59;18.70;99.90
11666;DHT22;5889;51.350;6.708;2022-07-23T06:54:29;18.80;99.90
11666;DHT22;5889;51.350;6.708;2022-07-23T06:56:57;18.90;99.90
11666;DHT22;5889;51.350;6.708;2022-07-23T06:59:24;19.10;99.90
11666;DHT22;5889;51.350;6.708;2022-07-23T07:01:51;19.30;99.90
11666;DHT22;5889;51.350;6.708;2022-07-23T07:04:18;19.30;99.90
11666;DHT22;5889;51.350;6.708;2022-07-23T07:06:46;19.30;99.90
11666;DHT22;5889;51.350;6.708;2022-07-23T07:09:13;19.20;99.90
11666;DHT22;5889;51.350;6.708;2022-07-23T07:11:40;19.10;99.90
11666;DHT22;5889;51.350;6.708;2022-07-23T07:14:07;19.00;99.90
11666;DHT22;5889;51.350;6.708;2022-07-23T07:16:34;19.10;99.90
11666;DHT22;5889;51.350;6.708;2022-07-23T07:19:01;19.00;99.90
11666;DHT22;5889;51.350;6.708;2022-07-23T07:21:27;18.80;99.90
11666;DHT22;5889;51.350;6.708;2022-07-23T07:23:56;18.70;99.90
11666;DHT22;5889;51.350;6.708;2022-07-23T07:26:23;18.70;99.90
11666;DHT22;5889;51.350;6.708;2022-07-23T07:28:50;18.80;99.90
11666;DHT22;5889;51.350;6.708;2022-07-23T07:31:17;19.00;99.90
11666;DHT22;5889;51.350;6.708;2022-07-23T07:33:44;19.10;99.90
11666;DHT22;5889;51.350;6.708;2022-07-23T07:36:11;19.10;99.90
11666;DHT22;5889;51.350;6.708;2022-07-23T07:38:37;19.10;99.90
11666;DHT22;5889;51.350;6.708;2022-07-23T07:41:06;19.20;99.90
11666;DHT22;5889;51.350;6.708;2022-07-23T07:43:35;19.20;99.90
11666;DHT22;5889;51.350;6.708;2022-07-23T07:46:02;19.40;99.90
11666;DHT22;5889;51.350;6.708;2022-07-23T07:48:30;19.50;99.90
11666;DHT22;5889;51.350;6.708;2022-07-23T07:50:56;19.60;99.90
11666;DHT22;5889;51.350;6.708;2022-07-23T07:53:23;19.70;99.90
11666;DHT22;5889;51.350;6.708;2022-07-23T07:55:50;19.80;99.90
11666;DHT22;5889;51.350;6.708;2022-07-23T07:58:19;19.90;99.90
11666;DHT22;5889;51.350;6.708;2022-07-23T08:00:46;20.00;99.90
11666;DHT22;5889;51.350;6.708;2022-07-23T08:03:13;20.10;99.90
11666;DHT22;5889;51.350;6.708;2022-07-23T08:05:40;20.10;99.90
11666;DHT22;5889;51.350;6.708;2022-07-23T08:08:07;20.30;99.90
11666;DHT22;5889;51.350;6.708;2022-07-23T08:10:35;20.50;99.90
11666;DHT22;5889;51.350;6.708;2022-07-23T08:13:02;20.60;99.90
11666;DHT22;5889;51.350;6.708;2022-07-23T08:15:30;20.70;99.90
11666;DHT22;5889;51.350;6.708;2022-07-23T08:17:59;20.80;99.90
11666;DHT22;5889;51.350;6.708;2022-07-23T08:20:26;21.00;99.90
11666;DHT22;5889;51.350;6.708;2022-07-23T08:22:54;21.00;99.90
11666;DHT22;5889;51.350;6.708;2022-07-23T08:25:23;21.00;99.90
11666;DHT22;5889;51.350;6.708;2022-07-23T08:27:50;21.00;99.90
11666;DHT22;5889;51.350;6.708;2022-07-23T08:30:18;21.10;99.90
11666;DHT22;5889;51.350;6.708;2022-07-23T08:32:50;21.10;99.90
11666;DHT22;5889;51.350;6.708;2022-07-23T08:35:18;21.10;99.90
11666;DHT22;5889;51.350;6.708;2022-07-23T08:37:47;21.20;99.90
11666;DHT22;5889;51.350;6.708;2022-07-23T08:40:14;21.60;99.90
11666;DHT22;5889;51.350;6.708;2022-07-23T08:42:41;21.50;99.90
11666;DHT22;5889;51.350;6.708;2022-07-23T08:45:09;21.60;99.90
11666;DHT22;5889;51.350;6.708;2022-07-23T08:47:37;21.70;99.90
11666;DHT22;5889;51.350;6.708;2022-07-23T08:50:07;21.80;99.90
11666;DHT22;5889;51.350;6.708;2022-07-23T08:52:36;21.70;98.90
11666;DHT22;5889;51.350;6.708;2022-07-23T08:55:04;21.60;99.00
11666;DHT22;5889;51.350;6.708;2022-07-23T08:57:31;21.80;98.00
11666;DHT22;5889;51.350;6.708;2022-07-23T08:59:58;22.00;97.50
11666;DHT22;5889;51.350;6.708;2022-07-23T09:02:25;21.90;98.60
11666;DHT22;5889;51.350;6.708;2022-07-23T09:04:52;21.90;97.70
11666;DHT22;5889;51.350;6.708;2022-07-23T09:07:20;22.00;97.30
11666;DHT22;5889;51.350;6.708;2022-07-23T09:10:08;22.20;96.90
11666;DHT22;5889;51.350;6.708;2022-07-23T09:12:35;22.30;96.40
11666;DHT22;5889;51.350;6.708;2022-07-23T09:15:07;22.50;95.30
11666;DHT22;5889;51.350;6.708;2022-07-23T09:17:37;22.70;97.10
11666;DHT22;5889;51.350;6.708;2022-07-23T09:20:10;22.60;96.20
11666;DHT22;5889;51.350;6.708;2022-07-23T09:22:40;22.60;95.90
11666;DHT22;5889;51.350;6.708;2022-07-23T09:25:12;22.80;94.90
11666;DHT22;5889;51.350;6.708;2022-07-23T09:27:52;22.80;94.20
11666;DHT22;5889;51.350;6.708;2022-07-23T09:30:20;23.00;93.70
11666;DHT22;5889;51.350;6.708;2022-07-23T09:33:09;23.10;93.70
11666;DHT22;5889;51.350;6.708;2022-07-23T09:35:47;23.00;94.50
11666;DHT22;5889;51.350;6.708;2022-07-23T09:38:17;22.70;95.20
11666;DHT22;5889;51.350;6.708;2022-07-23T09:40:45;22.80;95.10
11666;DHT22;5889;51.350;6.708;2022-07-23T09:43:12;22.80;94.50
11666;DHT22;5889;51.350;6.708;2022-07-23T09:45:39;23.10;94.10
11666;DHT22;5889;51.350;6.708;2022-07-23T09:48:10;23.30;94.00
11666;DHT22;5889;51.350;6.708;2022-07-23T09:50:38;23.50;93.90
11666;DHT22;5889;51.350;6.708;2022-07-23T09:53:05;23.70;93.70
11666;DHT22;5889;51.350;6.708;2022-07-23T09:55:34;24.00;93.30
11666;DHT22;5889;51.350;6.708;2022-07-23T09:58:03;24.00;93.40
11666;DHT22;5889;51.350;6.708;2022-07-23T10:00:31;24.00;92.50
11666;DHT22;5889;51.350;6.708;2022-07-23T10:02:59;24.10;92.90
11666;DHT22;5889;51.350;6.708;2022-07-23T10:05:27;24.40;92.40
11666;DHT22;5889;51.350;6.708;2022-07-23T10:07:55;24.60;92.10
11666;DHT22;5889;51.350;6.708;2022-07-23T10:10:22;24.40;91.30
11666;DHT22;5889;51.350;6.708;2022-07-23T10:12:54;24.60;91.30
11666;DHT22;5889;51.350;6.708;2022-07-23T10:15:50;25.00;90.50
11666;DHT22;5889;51.350;6.708;2022-07-23T10:18:17;25.30;89.50
11666;DHT22;5889;51.350;6.708;2022-07-23T10:20:47;25.50;87.70
11666;DHT22;5889;51.350;6.708;2022-07-23T10:23:21;25.60;88.50
11666;DHT22;5889;51.350;6.708;2022-07-23T10:25:57;25.60;88.30
11666;DHT22;5889;51.350;6.708;2022-07-23T10:28:51;25.30;87.90
11666;DHT22;5889;51.350;6.708;2022-07-23T10:31:31;25.20;89.00
11666;DHT22;5889;51.350;6.708;2022-07-23T10:34:07;25.10;87.90
11666;DHT22;5889;51.350;6.708;2022-07-23T10:36:40;25.30;88.30
11666;DHT22;5889;51.350;6.708;2022-07-23T10:39:15;25.40;87.70
11666;DHT22;5889;51.350;6.708;2022-07-23T10:41:44;25.10;86.30
11666;DHT22;5889;51.350;6.708;2022-07-23T10:44:14;25.00;88.10
11666;DHT22;5889;51.350;6.708;2022-07-23T10:46:56;24.70;85.50
11666;DHT22;5889;51.350;6.708;2022-07-23T10:49:49;24.80;86.00
11666;DHT22;5889;51.350;6.708;2022-07-23T10:52:24;25.10;85.20
11666;DHT22;5889;51.350;6.708;2022-07-23T10:54:53;25.10;85.90
11666;DHT22;5889;51.350;6.708;2022-07-23T10:57:21;25.00;83.50
11666;DHT22;5889;51.350;6.708;2022-07-23T11:02:49;25.40;83.50
11666;DHT22;5889;51.350;6.708;2022-07-23T11:05:18;24.80;84.20
11666;DHT22;5889;51.350;6.708;2022-07-23T11:08:16;24.80;86.10
11666;DHT22;5889;51.350;6.708;2022-07-23T11:10:51;24.90;85.60
11666;DHT22;5889;51.350;6.708;2022-07-23T11:13:36;25.10;84.10
11666;DHT22;5889;51.350;6.708;2022-07-23T11:16:11;25.30;84.30
11666;DHT22;5889;51.350;6.708;2022-07-23T11:21:50;25.20;84.80
11666;DHT22;5889;51.350;6.708;2022-07-23T11:24:20;25.60;83.20
11666;DHT22;5889;51.350;6.708;2022-07-23T11:27:02;25.70;82.90
11666;DHT22;5889;51.350;6.708;2022-07-23T11:29:45;25.40;82.20
11666;DHT22;5889;51.350;6.708;2022-07-23T11:32:33;25.20;83.20
11666;DHT22;5889;51.350;6.708;2022-07-23T11:35:03;25.60;82.80
11666;DHT22;5889;51.350;6.708;2022-07-23T11:37:44;25.80;81.60
11666;DHT22;5889;51.350;6.708;2022-07-23T11:40:13;25.70;82.70
11666;DHT22;5889;51.350;6.708;2022-07-23T11:42:51;25.70;82.30
11666;DHT22;5889;51.350;6.708;2022-07-23T11:45:19;25.80;82.10
11666;DHT22;5889;51.350;6.708;2022-07-23T11:47:46;25.70;81.40
11666;DHT22;5889;51.350;6.708;2022-07-23T11:50:14;25.90;82.70
11666;DHT22;5889;51.350;6.708;2022-07-23T11:52:41;26.20;83.10
11666;DHT22;5889;51.350;6.708;2022-07-23T11:55:10;26.00;81.70
11666;DHT22;5889;51.350;6.708;2022-07-23T11:57:39;25.90;81.90
11666;DHT22;5889;51.350;6.708;2022-07-23T12:00:08;26.10;80.80
11666;DHT22;5889;51.350;6.708;2022-07-23T12:02:36;26.40;81.20
11666;DHT22;5889;51.350;6.708;2022-07-23T12:05:04;26.30;81.20
11666;DHT22;5889;51.350;6.708;2022-07-23T12:07:34;26.40;81.70
11666;DHT22;5889;51.350;6.708;2022-07-23T12:10:03;26.70;80.00
11666;DHT22;5889;51.350;6.708;2022-07-23T12:12:36;26.60;79.80
11666;DHT22;5889;51.350;6.708;2022-07-23T12:15:05;26.70;79.30
11666;DHT22;5889;51.350;6.708;2022-07-23T12:17:37;27.00;78.90
11666;DHT22;5889;51.350;6.708;2022-07-23T12:20:06;26.80;79.50
11666;DHT22;5889;51.350;6.708;2022-07-23T12:22:37;26.70;78.90
11666;DHT22;5889;51.350;6.708;2022-07-23T12:25:07;26.70;80.70
11666;DHT22;5889;51.350;6.708;2022-07-23T12:27:35;26.70;79.90
11666;DHT22;5889;51.350;6.708;2022-07-23T12:30:22;26.80;79.90
11666;DHT22;5889;51.350;6.708;2022-07-23T12:32:50;26.70;79.40
11666;DHT22;5889;51.350;6.708;2022-07-23T12:35:18;26.90;79.20
11666;DHT22;5889;51.350;6.708;2022-07-23T12:37:48;27.20;78.60
11666;DHT22;5889;51.350;6.708;2022-07-23T12:40:26;27.30;77.50
11666;DHT22;5889;51.350;6.708;2022-07-23T12:42:55;26.80;77.60
11666;DHT22;5889;51.350;6.708;2022-07-23T12:45:23;26.10;79.20
11666;DHT22;5889;51.350;6.708;2022-07-23T12:48:02;25.80;79.00
11666;DHT22;5889;51.350;6.708;2022-07-23T12:50:42;25.70;80.50
11666;DHT22;5889;51.350;6.708;2022-07-23T12:53:13;26.00;81.10
11666;DHT22;5889;51.350;6.708;2022-07-23T12:55:42;26.40;80.80
11666;DHT22;5889;51.350;6.708;2022-07-23T12:58:11;26.60;80.00
11666;DHT22;5889;51.350;6.708;2022-07-23T13:01:06;27.00;79.40
11666;DHT22;5889;51.350;6.708;2022-07-23T13:03:35;27.10;77.60
11666;DHT22;5889;51.350;6.708;2022-07-23T13:06:05;27.10;77.40
11666;DHT22;5889;51.350;6.708;2022-07-23T13:08:34;27.40;77.20
11666;DHT22;5889;51.350;6.708;2022-07-23T13:11:02;27.60;77.60
11666;DHT22;5889;51.350;6.708;2022-07-23T13:13:32;27.40;77.40
11666;DHT22;5889;51.350;6.708;2022-07-23T13:16:00;27.00;77.00
11666;DHT22;5889;51.350;6.708;2022-07-23T13:18:27;26.80;77.20
11666;DHT22;5889;51.350;6.708;2022-07-23T13:20:55;27.10;77.20
11666;DHT22;5889;51.350;6.708;2022-07-23T13:23:23;27.40;75.80
11666;DHT22;5889;51.350;6.708;2022-07-23T13:25:51;27.30;77.80
11666;DHT22;5889;51.350;6.708;2022-07-23T13:28:19;27.40;76.90
11666;DHT22;5889;51.350;6.708;2022-07-23T13:30:47;27.20;76.50
11666;DHT22;5889;51.350;6.708;2022-07-23T13:33:15;26.90;76.80
11666;DHT22;5889;51.350;6.708;2022-07-23T13:35:43;27.10;76.40
11666;DHT22;5889;51.350;6.708;2022-07-23T13:38:16;27.10;76.70
11666;DHT22;5889;51.350;6.708;2022-07-23T13:40:46;26.80;77.30
11666;DHT22;5889;51.350;6.708;2022-07-23T13:43:16;26.70;77.00
11666;DHT22;5889;51.350;6.708;2022-07-23T13:45:44;26.60;77.20
11666;DHT22;5889;51.350;6.708;2022-07-23T13:48:11;26.80;77.40
11666;DHT22;5889;51.350;6.708;2022-07-23T13:50:39;27.00;76.50
11666;DHT22;5889;51.350;6.708;2022-07-23T13:53:08;27.20;76.60
11666;DHT22;5889;51.350;6.708;2022-07-23T13:55:36;27.20;76.40
11666;DHT22;5889;51.350;6.708;2022-07-23T13:58:04;27.30;77.10
11666;DHT22;5889;51.350;6.708;2022-07-23T14:00:35;27.20;77.00
11666;DHT22;5889;51.350;6.708;2022-07-23T14:03:02;27.20;76.10
11666;DHT22;5889;51.350;6.708;2022-07-23T14:05:29;27.10;75.60
11666;DHT22;5889;51.350;6.708;2022-07-23T14:07:56;27.20;75.70
11666;DHT22;5889;51.350;6.708;2022-07-23T14:10:24;27.50;74.30
11666;DHT22;5889;51.350;6.708;2022-07-23T14:12:52;28.00;73.70
11666;DHT22;5889;51.350;6.708;2022-07-23T14:15:23;28.20;74.30
11666;DHT22;5889;51.350;6.708;2022-07-23T14:17:53;28.30;73.70
11666;DHT22;5889;51.350;6.708;2022-07-23T14:20:21;28.10;73.10
11666;DHT22;5889;51.350;6.708;2022-07-23T14:22:48;28.00;73.20
11666;DHT22;5889;51.350;6.708;2022-07-23T14:25:16;28.20;73.00
11666;DHT22;5889;51.350;6.708;2022-07-23T14:27:43;28.10;73.70
11666;DHT22;5889;51.350;6.708;2022-07-23T14:30:11;28.30;73.00
11666;DHT22;5889;51.350;6.708;2022-07-23T14:32:38;28.60;72.40
11666;DHT22;5889;51.350;6.708;2022-07-23T14:35:07;28.80;72.20
11666;DHT22;5889;51.350;6.708;2022-07-23T14:37:34;28.90;70.50
11666;DHT22;5889;51.350;6.708;2022-07-23T14:40:01;28.80;71.20
11666;DHT22;5889;51.350;6.708;2022-07-23T14:42:29;28.50;70.80
11666;DHT22;5889;51.350;6.708;2022-07-23T14:44:56;28.40;71.20
11666;DHT22;5889;51.350;6.708;2022-07-23T14:47:22;28.30;70.90
11666;DHT22;5889;51.350;6.708;2022-07-23T14:49:49;28.30;71.50
11666;DHT22;5889;51.350;6.708;2022-07-23T14:52:18;27.90;72.00
11666;DHT22;5889;51.350;6.708;2022-07-23T14:54:45;27.80;71.80
11666;DHT22;5889;51.350;6.708;2022-07-23T14:57:14;28.00;72.10
11666;DHT22;5889;51.350;6.708;2022-07-23T14:59:41;28.30;71.10
11666;DHT22;5889;51.350;6.708;2022-07-23T15:02:08;28.50;71.00
11666;DHT22;5889;51.350;6.708;2022-07-23T15:04:35;28.80;70.10
11666;DHT22;5889;51.350;6.708;2022-07-23T15:07:02;29.10;69.00
11666;DHT22;5889;51.350;6.708;2022-07-23T15:09:31;29.30;69.40
11666;DHT22;5889;51.350;6.708;2022-07-23T15:11:58;29.50;68.40
11666;DHT22;5889;51.350;6.708;2022-07-23T15:14:25;29.60;68.50
11666;DHT22;5889;51.350;6.708;2022-07-23T15:16:52;29.70;68.30
11666;DHT22;5889;51.350;6.708;2022-07-23T15:19:19;29.80;68.50
11666;DHT22;5889;51.350;6.708;2022-07-23T15:21:46;29.40;69.10
11666;DHT22;5889;51.350;6.708;2022-07-23T15:24:13;29.60;69.40
11666;DHT22;5889;51.350;6.708;2022-07-23T15:26:41;29.30;68.90
11666;DHT22;5889;51.350;6.708;2022-07-23T15:29:08;29.30;68.70
11666;DHT22;5889;51.350;6.708;2022-07-23T15:31:35;29.50;68.20
11666;DHT22;5889;51.350;6.708;2022-07-23T15:34:02;29.70;68.40
11666;DHT22;5889;51.350;6.708;2022-07-23T15:36:29;29.50;68.50
11666;DHT22;5889;51.350;6.708;2022-07-23T15:38:56;29.00;68.90
11666;DHT22;5889;51.350;6.708;2022-07-23T15:41:22;28.60;69.60
11666;DHT22;5889;51.350;6.708;2022-07-23T15:43:51;28.40;70.10
11666;DHT22;5889;51.350;6.708;2022-07-23T15:46:20;28.40;71.00
11666;DHT22;5889;51.350;6.708;2022-07-23T15:48:48;28.40;70.70
11666;DHT22;5889;51.350;6.708;2022-07-23T15:51:16;28.70;69.70
11666;DHT22;5889;51.350;6.708;2022-07-23T15:53:43;28.90;69.40
11666;DHT22;5889;51.350;6.708;2022-07-23T15:56:10;29.00;69.10
11666;DHT22;5889;51.350;6.708;2022-07-23T15:58:37;28.80;69.60
11666;DHT22;5889;51.350;6.708;2022-07-23T16:01:06;28.80;69.60
11666;DHT22;5889;51.350;6.708;2022-07-23T16:03:34;28.90;68.90